Yr Wyddgrug, United Kingdom
Current Conditions -  °F | °C
As of 2:20 PM on Tuesday 27 Jan 2015 (Local Time) from EGNR Reporting Station
Broken Clouds Broken Clouds  
Wind Chill:   Ceiling: 3200
Heat Index:   Visibility: 6mi
Dew Point:   Wind: 10mph
Humidity: 71%   Direction: 250°WSW
Pressure: 30.27"   Gusts: NA
Location:  53.17°N, 3.14°W
Report Text: EGNR 271420Z 25009KT 230V290 9999 FEW022 BKN032 09/04 Q1025
Loading
Personal Weather Stations






























Interactive Weather Map New forecast layout! Learn more

10-Day Weather Forecast

Advertisements
Track Severe Weather on mobile